Time,TemperatureF,DewpointF,PressureIn,WindDirection,WindDirectionDegrees,WindSpeedMPH,WindSpeedGustMPH,Humidity,HourlyPrecipIn,Conditions,Clouds,dailyrainin,SoftwareType,DateUTC
2013-08-03 00:13:00,-999.0,-99.9,29.87,North,-999,-999.0,-999.0,-999,-99.99,,,0.00,weatherlink.com 1.10,2013-08-03 04:13:00,
2013-08-03 00:28:00,-999.0,-99.9,29.87,North,-999,-999.0,-999.0,-999,-99.99,,,0.00,weatherlink.com 1.10,2013-08-03 04:28:00,
2013-08-03 00:43:00,-999.0,-99.9,29.87,North,-999,-999.0,-999.0,-999,-99.99,,,0.00,weatherlink.com 1.10,2013-08-03 04:43:00,
2013-08-03 00:59:00,-999.0,-99.9,29.87,North,-999,-999.0,-999.0,-999,-99.99,,,0.00,weatherlink.com 1.10,2013-08-03 04:59:00,
2013-08-03 01:14:00,-999.0,-99.9,29.87,North,-999,-999.0,-999.0,-999,-99.99,,,0.00,weatherlink.com 1.10,2013-08-03 05:14:00,
2013-08-03 01:29:00,-999.0,-99.9,29.87,North,-999,-999.0,-999.0,-999,-99.99,,,0.00,weatherlink.com 1.10,2013-08-03 05:29:00,
2013-08-03 01:44:00,-999.0,-99.9,29.87,North,-999,-999.0,-999.0,-999,-99.99,,,0.00,weatherlink.com 1.10,2013-08-03 05:44:00,
2013-08-03 01:59:00,-999.0,-99.9,29.86,North,-999,-999.0,-999.0,-999,-99.99,,,0.00,weatherlink.com 1.10,2013-08-03 05:59:00,
2013-08-03 02:14:00,-999.0,-99.9,29.86,North,-999,-999.0,-999.0,-999,-99.99,,,0.00,weatherlink.com 1.10,2013-08-03 06:14:00,
2013-08-03 02:29:00,-999.0,-99.9,29.86,North,-999,-999.0,-999.0,-999,-99.99,,,0.00,weatherlink.com 1.10,2013-08-03 06:29:00,
2013-08-03 02:44:00,-999.0,-99.9,29.86,North,-999,-999.0,-999.0,-999,-99.99,,,0.00,weatherlink.com 1.10,2013-08-03 06:44:00,
2013-08-03 02:59:00,-999.0,-99.9,29.86,North,-999,-999.0,-999.0,-999,-99.99,,,0.00,weatherlink.com 1.10,2013-08-03 06:59:00,
2013-08-03 03:14:00,-999.0,-99.9,29.86,North,-999,-999.0,-999.0,-999,-99.99,,,0.00,weatherlink.com 1.10,2013-08-03 07:14:00,
2013-08-03 03:29:00,-999.0,-99.9,29.86,North,-999,-999.0,-999.0,-999,-99.99,,,0.00,weatherlink.com 1.10,2013-08-03 07:29:00,
2013-08-03 03:44:00,-999.0,-99.9,29.86,North,-999,-999.0,-999.0,-999,-99.99,,,0.00,weatherlink.com 1.10,2013-08-03 07:44:00,
2013-08-03 03:59:00,-999.0,-99.9,29.87,North,-999,-999.0,-999.0,-999,-99.99,,,0.00,weatherlink.com 1.10,2013-08-03 07:59:00,
2013-08-03 04:14:00,-999.0,-99.9,29.87,North,-999,-999.0,-999.0,-999,-99.99,,,0.00,weatherlink.com 1.10,2013-08-03 08:14:00,
2013-08-03 04:30:00,-999.0,-99.9,29.87,North,-999,-999.0,-999.0,-999,-99.99,,,0.00,weatherlink.com 1.10,2013-08-03 08:30:00,
2013-08-03 04:45:00,-999.0,-99.9,29.87,North,-999,-999.0,-999.0,-999,-99.99,,,0.00,weatherlink.com 1.10,2013-08-03 08:45:00,
2013-08-03 05:00:00,-999.0,-99.9,29.88,North,-999,-999.0,-999.0,-999,-99.99,,,0.00,weatherlink.com 1.10,2013-08-03 09:00:00,
2013-08-03 05:15:00,-999.0,-99.9,29.88,North,-999,-999.0,-999.0,-999,-99.99,,,0.00,weatherlink.com 1.10,2013-08-03 09:15:00,
2013-08-03 05:30:00,-999.0,-99.9,29.89,North,-999,-999.0,-999.0,-999,-99.99,,,0.00,weatherlink.com 1.10,2013-08-03 09:30:00,
2013-08-03 05:45:00,-999.0,-99.9,29.89,North,-999,-999.0,-999.0,-999,-99.99,,,0.00,weatherlink.com 1.10,2013-08-03 09:45:00,
2013-08-03 06:00:00,-999.0,-99.9,29.90,North,-999,-999.0,-999.0,-999,-99.99,,,0.00,weatherlink.com 1.10,2013-08-03 10:00:00,
2013-08-03 06:15:00,-999.0,-99.9,29.90,North,-999,-999.0,-999.0,-999,-99.99,,,0.00,weatherlink.com 1.10,2013-08-03 10:15:00,
2013-08-03 06:30:00,-999.0,-99.9,29.90,North,-999,-999.0,-999.0,-999,-99.99,,,0.00,weatherlink.com 1.10,2013-08-03 10:30:00,
2013-08-03 06:45:00,-999.0,-99.9,29.91,North,-999,-999.0,-999.0,-999,-99.99,,,0.00,weatherlink.com 1.10,2013-08-03 10:45:00,
2013-08-03 07:00:00,-999.0,-99.9,29.91,North,-999,-999.0,-999.0,-999,-99.99,,,0.00,weatherlink.com 1.10,2013-08-03 11:00:00,
2013-08-03 07:15:00,-999.0,-99.9,29.91,North,-999,-999.0,-999.0,-999,-99.99,,,0.00,weatherlink.com 1.10,2013-08-03 11:15:00,
2013-08-03 07:30:00,-999.0,-99.9,29.91,North,-999,-999.0,-999.0,-999,-99.99,,,0.00,weatherlink.com 1.10,2013-08-03 11:30:00,
2013-08-03 07:45:00,-999.0,-99.9,29.91,North,-999,-999.0,-999.0,-999,-99.99,,,0.00,weatherlink.com 1.10,2013-08-03 11:45:00,
2013-08-03 08:01:00,-999.0,-99.9,29.92,North,-999,-999.0,-999.0,-999,-99.99,,,0.00,weatherlink.com 1.10,2013-08-03 12:01:00,
2013-08-03 08:16:00,-999.0,-99.9,29.92,North,-999,-999.0,-999.0,-999,-99.99,,,0.00,weatherlink.com 1.10,2013-08-03 12:16:00,
2013-08-03 08:31:00,-999.0,-99.9,29.92,North,-999,-999.0,-999.0,-999,-99.99,,,0.00,weatherlink.com 1.10,2013-08-03 12:31:00,
2013-08-03 08:46:00,59.0,54.0,29.92,WNW,290,0.0,-999.0,84,-99.99,,,0.00,weatherlink.com 1.10,2013-08-03 12:46:00,
2013-08-03 09:01:00,60.3,55.0,29.93,WNW,302,0.0,-999.0,83,-99.99,,,0.00,weatherlink.com 1.10,2013-08-03 13:01:00,
2013-08-03 09:16:00,61.2,55.0,29.93,WNW,295,7.0,-999.0,81,-99.99,,,0.00,weatherlink.com 1.10,2013-08-03 13:16:00,
2013-08-03 09:31:00,61.1,55.0,29.93,WNW,292,0.0,-999.0,80,-99.99,,,0.00,weatherlink.com 1.10,2013-08-03 13:31:00,
2013-08-03 09:46:00,61.3,55.0,29.93,WNW,300,2.0,-999.0,81,-99.99,,,0.00,weatherlink.com 1.10,2013-08-03 13:46:00,
2013-08-03 10:01:00,61.6,55.0,29.93,WNW,299,7.0,-999.0,79,-99.99,,,0.00,weatherlink.com 1.10,2013-08-03 14:01:00,
2013-08-03 10:16:00,61.8,55.0,29.93,WNW,296,2.0,-999.0,78,-99.99,,,0.00,weatherlink.com 1.10,2013-08-03 14:16:00,
2013-08-03 10:46:00,62.2,56.0,29.93,WNW,298,4.0,-999.0,79,-99.99,,,0.00,weatherlink.com 1.10,2013-08-03 14:46:00,
2013-08-03 11:01:00,62.3,56.0,29.94,WNW,289,2.0,-999.0,80,-99.99,,,0.00,weatherlink.com 1.10,2013-08-03 15:01:00,
2013-08-03 11:31:00,62.5,56.0,29.94,WNW,300,4.0,-999.0,79,-99.99,,,0.06,weatherlink.com 1.10,2013-08-03 15:31:00,
2013-08-03 11:46:00,62.2,57.0,29.95,WNW,288,0.0,-999.0,84,-99.99,,,0.09,weatherlink.com 1.10,2013-08-03 15:46:00,
2013-08-03 12:01:00,62.3,57.0,29.95,West,281,4.0,-999.0,83,-99.99,,,0.10,weatherlink.com 1.10,2013-08-03 16:01:00,
2013-08-03 12:16:00,62.7,57.0,29.95,West,277,6.0,-999.0,82,-99.99,,,0.11,weatherlink.com 1.10,2013-08-03 16:16:00,
2013-08-03 12:31:00,63.8,56.0,29.95,WNW,288,4.0,-999.0,77,-99.99,,,0.12,weatherlink.com 1.10,2013-08-03 16:31:00,
2013-08-03 13:01:00,65.3,56.0,29.96,NW,319,3.0,-999.0,72,-99.99,,,0.14,weatherlink.com 1.10,2013-08-03 17:01:00,
2013-08-03 13:16:00,64.9,56.0,29.96,WNW,296,7.0,-999.0,73,-99.99,,,0.15,weatherlink.com 1.10,2013-08-03 17:16:00,
2013-08-03 13:31:00,66.4,56.0,29.96,WNW,299,0.0,-999.0,70,-99.99,,,0.16,weatherlink.com 1.10,2013-08-03 17:31:00,
2013-08-03 13:46:00,66.9,56.0,29.97,West,281,3.0,-999.0,67,-99.99,,,0.17,weatherlink.com 1.10,2013-08-03 17:46:00,
2013-08-03 14:01:00,65.0,55.0,29.98,WNW,292,4.0,-999.0,70,-99.99,,,0.18,weatherlink.com 1.10,2013-08-03 18:01:00,
2013-08-03 14:16:00,64.3,55.0,29.98,WNW,296,9.0,-999.0,72,-99.99,,,0.19,weatherlink.com 1.10,2013-08-03 18:16:00,
2013-08-03 14:32:00,63.5,55.0,29.98,WNW,298,7.0,-999.0,74,-99.99,,,0.19,weatherlink.com 1.10,2013-08-03 18:32:00,
2013-08-03 15:01:00,63.9,55.0,29.99,WNW,303,2.0,-999.0,73,-99.99,,,0.21,weatherlink.com 1.10,2013-08-03 19:01:00,
2013-08-03 15:16:00,63.7,55.0,29.99,WNW,294,5.0,-999.0,73,-99.99,,,0.21,weatherlink.com 1.10,2013-08-03 19:16:00,
2013-08-03 15:32:00,64.0,55.0,29.99,WNW,299,6.0,-999.0,73,-99.99,,,0.22,weatherlink.com 1.10,2013-08-03 19:32:00,
2013-08-03 16:02:00,63.6,56.0,29.99,West,276,1.0,-999.0,75,-99.99,,,0.22,weatherlink.com 1.10,2013-08-03 20:02:00,
2013-08-03 16:32:00,64.2,56.0,29.99,NW,323,1.0,-999.0,75,-99.99,,,0.22,weatherlink.com 1.10,2013-08-03 20:32:00,
2013-08-03 16:47:00,64.6,55.0,29.99,NNW,331,4.0,-999.0,72,-99.99,,,0.23,weatherlink.com 1.10,2013-08-03 20:47:00,
2013-08-03 17:02:00,64.3,56.0,29.99,WNW,298,5.0,-999.0,74,-99.99,,,0.23,weatherlink.com 1.10,2013-08-03 21:02:00,
2013-08-03 17:17:00,64.2,56.0,29.99,WNW,301,2.0,-999.0,75,-99.99,,,0.23,weatherlink.com 1.10,2013-08-03 21:17:00,
2013-08-03 17:31:00,64.6,57.0,29.99,WNW,296,1.0,-999.0,75,-99.99,,,0.23,weatherlink.com 1.10,2013-08-03 21:31:00,
2013-08-03 17:47:00,64.1,56.0,29.99,WNW,293,4.0,-999.0,75,-99.99,,,0.24,weatherlink.com 1.10,2013-08-03 21:47:00,
2013-08-03 18:02:00,64.7,57.0,29.99,NW,306,3.0,-999.0,75,-99.99,,,0.24,weatherlink.com 1.10,2013-08-03 22:02:00,
2013-08-03 18:17:00,64.7,56.0,30.00,NW,325,0.0,-999.0,73,-99.99,,,0.24,weatherlink.com 1.10,2013-08-03 22:17:00,
2013-08-03 18:32:00,64.5,56.0,30.00,North,360,0.0,-999.0,73,-99.99,,,0.24,weatherlink.com 1.10,2013-08-03 22:32:00,
2013-08-03 18:47:00,64.2,55.0,30.00,NNW,341,7.0,-999.0,73,-99.99,,,0.25,weatherlink.com 1.10,2013-08-03 22:47:00,
2013-08-03 19:02:00,64.4,56.0,30.00,NW,314,0.0,-999.0,74,-99.99,,,0.25,weatherlink.com 1.10,2013-08-03 23:02:00,
2013-08-03 19:17:00,63.9,55.0,30.00,NW,313,0.0,-999.0,74,-99.99,,,0.25,weatherlink.com 1.10,2013-08-03 23:17:00,
2013-08-03 19:32:00,63.9,55.0,30.00,NW,321,1.0,-999.0,73,-99.99,,,0.25,weatherlink.com 1.10,2013-08-03 23:32:00,
2013-08-03 19:47:00,64.0,55.0,30.01,NW,305,10.0,-999.0,72,-99.99,,,0.26,weatherlink.com 1.10,2013-08-03 23:47:00,
2013-08-03 20:02:00,64.1,54.0,30.01,NW,320,1.0,-999.0,70,-99.99,,,0.26,weatherlink.com 1.10,2013-08-04 00:02:00,
2013-08-03 20:17:00,63.2,54.0,30.01,WNW,289,4.0,-999.0,72,-99.99,,,0.26,weatherlink.com 1.10,2013-08-04 00:17:00,
2013-08-03 20:32:00,62.7,54.0,30.02,WNW,294,0.0,-999.0,74,-99.99,,,0.26,weatherlink.com 1.10,2013-08-04 00:32:00,
2013-08-03 20:47:00,61.8,54.0,30.01,WNW,296,0.0,-999.0,76,-99.99,,,0.26,weatherlink.com 1.10,2013-08-04 00:47:00,
2013-08-03 21:02:00,-999.0,-99.9,30.01,North,-999,-999.0,-999.0,-999,-99.99,,,0.26,weatherlink.com 1.10,2013-08-04 01:02:00,
2013-08-03 21:17:00,-999.0,-99.9,30.02,North,-999,-999.0,-999.0,-999,-99.99,,,0.26,weatherlink.com 1.10,2013-08-04 01:17:00,
2013-08-03 21:32:00,-999.0,-99.9,30.02,North,-999,-999.0,-999.0,-999,-99.99,,,0.26,weatherlink.com 1.10,2013-08-04 01:32:00,
2013-08-03 21:47:00,-999.0,-99.9,30.02,North,-999,-999.0,-999.0,-999,-99.99,,,0.26,weatherlink.com 1.10,2013-08-04 01:47:00,
2013-08-03 22:02:00,-999.0,-99.9,30.03,North,-999,-999.0,-999.0,-999,-99.99,,,0.26,weatherlink.com 1.10,2013-08-04 02:02:00,
2013-08-03 22:17:00,-999.0,-99.9,30.03,North,-999,-999.0,-999.0,-999,-99.99,,,0.26,weatherlink.com 1.10,2013-08-04 02:17:00,
2013-08-03 22:32:00,-999.0,-99.9,30.02,North,-999,-999.0,-999.0,-999,-99.99,,,0.26,weatherlink.com 1.10,2013-08-04 02:32:00,
2013-08-03 22:47:00,-999.0,-99.9,30.03,North,-999,-999.0,-999.0,-999,-99.99,,,0.26,weatherlink.com 1.10,2013-08-04 02:47:00,
2013-08-03 23:02:00,-999.0,-99.9,30.03,North,-999,-999.0,-999.0,-999,-99.99,,,0.26,weatherlink.com 1.10,2013-08-04 03:02:00,
2013-08-03 23:17:00,-999.0,-99.9,30.03,North,-999,-999.0,-999.0,-999,-99.99,,,0.26,weatherlink.com 1.10,2013-08-04 03:17:00,
2013-08-03 23:33:00,-999.0,-99.9,30.03,North,-999,-999.0,-999.0,-999,-99.99,,,0.26,weatherlink.com 1.10,2013-08-04 03:33:00,
2013-08-03 23:47:00,-999.0,-99.9,30.03,North,-999,-999.0,-999.0,-999,-99.99,,,0.26,weatherlink.com 1.10,2013-08-04 03:47:00,